Time;durP1;ratioP1;P1;durP2;ratioP2;P2;SDS_P1;SDS_P2;PMS_P1;PMS_P2;Temp;Humidity;BMP_temperature;BMP_pressure;BME280_temperature;BME280_humidity;BME280_pressure;Samples;Min_cycle;Max_cycle;Signal;HPM_P1;HPM_P2
2022/12/31 00:02:15;;;;;;;4.95;1.13;;;15.50;89.10;;;;;;4946722;29;20035;-79
2022/12/31 00:04:40;;;;;;;12.20;2.47;;;15.40;89.20;;;;;;4952877;29;20067;-79
2022/12/31 00:07:06;;;;;;;9.35;1.63;;;15.40;89.30;;;;;;4951642;29;20607;-79
2022/12/31 00:09:32;;;;;;;10.07;1.70;;;15.40;89.20;;;;;;4956609;29;20030;-79
2022/12/31 00:11:57;;;;;;;13.13;1.90;;;15.40;89.30;;;;;;4956005;29;20035;-79
2022/12/31 00:14:26;;;;;;;4.75;1.52;;;15.40;89.50;;;;;;4956628;29;20032;-79
2022/12/31 00:16:51;;;;;;;6.32;1.65;;;15.50;89.50;;;;;;4945332;29;20031;-79
2022/12/31 00:19:17;;;;;;;5.15;1.13;;;15.50;89.50;;;;;;4956587;29;20027;-79
2022/12/31 00:21:43;;;;;;;9.18;1.70;;;15.40;89.50;;;;;;4956353;29;20031;-79
2022/12/31 00:24:11;;;;;;;5.60;1.27;;;15.40;89.40;;;;;;4953805;29;20058;-79
2022/12/31 00:26:37;;;;;;;8.20;1.48;;;15.40;89.70;;;;;;4954819;29;20059;-80
2022/12/31 00:29:03;;;;;;;13.45;2.17;;;15.50;89.50;;;;;;4956887;29;20368;-79
2022/12/31 00:31:34;;;;;;;5.32;1.13;;;15.50;89.50;;;;;;4955935;29;20442;-78
2022/12/31 00:34:00;;;;;;;10.70;2.55;;;15.40;89.40;;;;;;4953867;29;20100;-79
2022/12/31 00:36:31;;;;;;;8.20;1.75;;;15.50;89.60;;;;;;4956294;29;20467;-79
2022/12/31 00:38:59;;;;;;;7.22;1.40;;;15.50;89.50;;;;;;4942099;29;20042;-79
2022/12/31 00:41:26;;;;;;;11.80;1.98;;;15.50;89.40;;;;;;4956028;29;20054;-79
2022/12/31 00:43:52;;;;;;;13.98;1.67;;;15.50;89.30;;;;;;4944264;29;20377;-79
2022/12/31 00:46:18;;;;;;;5.07;1.58;;;15.50;89.20;;;;;;4945560;29;20035;-79
2022/12/31 00:48:51;;;;;;;7.88;1.65;;;15.60;88.90;;;;;;4955279;29;20023;-78
2022/12/31 00:51:20;;;;;;;8.82;1.40;;;15.50;88.80;;;;;;4955338;29;20031;-79
2022/12/31 00:53:46;;;;;;;11.30;1.70;;;15.60;88.80;;;;;;4952628;29;20448;-79
2022/12/31 00:56:15;;;;;;;10.35;2.15;;;15.70;88.70;;;;;;4952069;28;20035;-79
2022/12/31 00:58:41;;;;;;;10.75;1.92;;;15.60;88.80;;;;;;4959486;29;20051;-80
2022/12/31 01:01:33;;;;;;;6.05;2.08;;;15.70;88.80;;;;;;4958111;29;20035;-79
2022/12/31 01:04:11;;;;;;;5.13;1.60;;;15.70;88.30;;;;;;4959148;29;20015;-79
2022/12/31 01:06:38;;;;;;;9.75;1.60;;;15.70;88.10;;;;;;4959664;29;20422;-79
2022/12/31 01:09:04;;;;;;;9.05;1.20;;;15.80;88.20;;;;;;4949969;29;20031;-79
2022/12/31 01:11:30;;;;;;;12.50;1.88;;;15.80;87.90;;;;;;4949421;29;20503;-79
2022/12/31 01:14:02;;;;;;;3.20;1.02;;;15.80;87.70;;;;;;4959472;29;20113;-79
2022/12/31 01:16:47;;;;;;;9.40;1.98;;;15.80;87.60;;;;;;4959582;29;20086;-79
2022/12/31 01:19:18;;;;;;;4.95;1.77;;;15.80;87.20;;;;;;4949262;29;20070;-79
2022/12/31 01:21:45;;;;;;;5.35;1.50;;;15.80;87.00;;;;;;4959110;29;20467;-79
2022/12/31 01:24:11;;;;;;;8.60;1.88;;;15.80;87.10;;;;;;4952772;29;20106;-79
2022/12/31 01:26:37;;;;;;;4.97;1.10;;;15.80;86.80;;;;;;4959093;29;20182;-80
2022/12/31 01:29:04;;;;;;;6.25;1.90;;;15.90;86.80;;;;;;4956811;29;20047;-79
2022/12/31 01:31:32;;;;;;;8.93;1.20;;;15.90;87.00;;;;;;4952008;29;20059;-79
2022/12/31 01:34:00;;;;;;;6.63;1.92;;;15.90;87.10;;;;;;4950132;29;20107;-79
2022/12/31 01:36:28;;;;;;;9.18;1.45;;;15.80;87.20;;;;;;4945021;29;20070;-79
2022/12/31 01:38:56;;;;;;;8.18;1.52;;;15.80;87.10;;;;;;4956184;29;20034;-79
2022/12/31 01:41:24;;;;;;;11.63;1.60;;;15.80;86.70;;;;;;4951097;29;20036;-80
2022/12/31 01:43:53;;;;;;;8.38;1.70;;;15.90;86.60;;;;;;4943052;29;20027;-79
2022/12/31 01:46:36;;;;;;;5.28;1.23;;;15.90;86.10;;;;;;4955434;29;20171;-79
2022/12/31 01:49:14;;;;;;;4.88;1.25;;;15.90;86.30;;;;;;4958913;29;20037;-79
2022/12/31 01:51:41;;;;;;;7.45;1.38;;;15.90;86.40;;;;;;4957496;29;20062;-79
2022/12/31 01:54:09;;;;;;;8.27;1.95;;;15.90;86.70;;;;;;4958650;29;20039;-79
2022/12/31 01:56:44;;;;;;;4.72;0.98;;;15.90;87.20;;;;;;4956031;29;20562;-79
2022/12/31 01:59:11;;;;;;;4.75;1.20;;;15.80;87.40;;;;;;4958824;29;20104;-79
2022/12/31 02:01:37;;;;;;;7.60;1.52;;;15.80;87.90;;;;;;4955005;29;20026;-79
2022/12/31 02:04:07;;;;;;;8.48;1.67;;;15.70;88.30;;;;;;4946591;29;20575;-79
2022/12/31 02:06:49;;;;;;;5.47;1.20;;;15.70;88.40;;;;;;4955696;29;20038;-79
2022/12/31 02:09:14;;;;;;;4.28;1.17;;;15.60;88.40;;;;;;4952334;29;20024;-79
2022/12/31 02:11:40;;;;;;;5.72;1.20;;;15.60;88.30;;;;;;4955957;29;20034;-79
2022/12/31 02:14:31;;;;;;;4.93;1.95;;;15.60;88.20;;;;;;4954155;29;21751;-79
2022/12/31 02:17:04;;;;;;;7.47;1.20;;;15.70;88.10;;;;;;4938870;29;20024;-79
2022/12/31 02:20:05;;;;;;;4.93;0.98;;;15.70;88.00;;;;;;4941363;29;20762;-79
2022/12/31 02:22:37;;;;;;;5.40;1.33;;;15.70;87.90;;;;;;4947420;28;20516;-79
2022/12/31 02:25:11;;;;;;;5.38;1.17;;;15.80;88.00;;;;;;4949025;29;20023;-80
2022/12/31 02:27:59;;;;;;;13.85;1.70;;;15.70;87.80;;;;;;4957180;29;20118;-79
2022/12/31 02:30:27;;;;;;;6.90;1.45;;;15.70;87.60;;;;;;4952142;29;20028;-79
2022/12/31 02:33:13;;;;;;;7.40;1.58;;;15.80;87.40;;;;;;4944206;29;20027;-80
2022/12/31 02:36:01;;;;;;;7.75;0.82;;;15.80;87.40;;;;;;4954805;29;20526;-79
2022/12/31 02:38:32;;;;;;;5.55;1.70;;;15.80;87.00;;;;;;4947664;29;20563;-79
2022/12/31 02:40:59;;;;;;;5.88;1.58;;;15.80;86.90;;;;;;4957680;29;20058;-80
2022/12/31 02:43:25;;;;;;;3.78;1.05;;;15.80;86.50;;;;;;4957858;29;20027;-80
2022/12/31 02:46:15;;;;;;;3.13;1.65;;;15.90;86.40;;;;;;4951757;29;20069;-80
2022/12/31 02:49:33;;;;;;;6.97;1.35;;;15.80;86.30;;;;;;4948142;29;20028;-80
2022/12/31 02:52:43;;;;;;;11.95;2.35;;;15.90;86.00;;;;;;4914005;29;20048;-79
2022/12/31 02:55:18;;;;;;;9.07;2.00;;;15.90;85.70;;;;;;4940383;28;20080;-79
2022/12/31 02:58:06;;;;;;;5.75;1.40;;;15.90;85.50;;;;;;4945135;29;20078;-79
2022/12/31 03:03:26;;;;;;;4.28;1.75;;;16.00;85.50;;;;;;4953723;29;20065;-80
2022/12/31 03:05:52;;;;;;;7.13;1.55;;;15.90;85.40;;;;;;4948309;29;20435;-79
2022/12/31 03:08:23;;;;;;;4.85;1.85;;;16.00;85.40;;;;;;4957328;29;20467;-79
2022/12/31 03:10:52;;;;;;;4.63;1.35;;;16.00;85.20;;;;;;4955820;29;20051;-79
2022/12/31 03:13:17;;;;;;;4.43;1.55;;;16.00;85.10;;;;;;4953612;29;20058;-80
2022/12/31 03:15:43;;;;;;;6.65;1.52;;;16.00;84.90;;;;;;4957178;29;20499;-80
2022/12/31 03:18:10;;;;;;;7.30;1.50;;;16.10;84.70;;;;;;4956714;29;20389;-80
2022/12/31 03:23:49;;;;;;;7.78;2.03;;;16.10;84.10;;;;;;4943793;29;20163;-80
2022/12/31 03:26:14;;;;;;;4.68;1.33;;;16.20;84.00;;;;;;4955194;29;20031;-80
2022/12/31 03:28:46;;;;;;;5.85;1.20;;;16.20;84.20;;;;;;4948330;29;20106;-80
2022/12/31 03:31:12;;;;;;;6.38;1.73;;;16.20;84.00;;;;;;4956798;29;20043;-80
2022/12/31 03:33:42;;;;;;;10.13;1.65;;;16.20;83.90;;;;;;4957370;29;20035;-79
2022/12/31 03:36:11;;;;;;;7.00;1.52;;;16.20;83.80;;;;;;4956967;29;20054;-79
2022/12/31 03:38:37;;;;;;;8.07;1.50;;;16.20;83.50;;;;;;4951032;29;20344;-79
2022/12/31 03:41:03;;;;;;;4.05;1.05;;;16.20;83.60;;;;;;4953079;29;20106;-79
2022/12/31 03:43:29;;;;;;;6.13;1.98;;;16.30;83.20;;;;;;4956219;29;20083;-80
2022/12/31 03:45:54;;;;;;;7.85;1.77;;;16.30;83.10;;;;;;4953825;29;20106;-80
2022/12/31 03:48:21;;;;;;;4.15;1.52;;;16.20;83.00;;;;;;4954499;29;20027;-79
2022/12/31 03:50:50;;;;;;;3.40;1.63;;;16.30;82.40;;;;;;4951792;29;20035;-79
2022/12/31 03:53:16;;;;;;;3.50;1.33;;;16.30;82.10;;;;;;4957174;29;20031;-79
2022/12/31 03:55:42;;;;;;;3.97;1.10;;;16.30;82.50;;;;;;4956220;29;20066;-79
2022/12/31 03:58:08;;;;;;;8.40;1.90;;;16.30;82.30;;;;;;4956045;29;20028;-79
2022/12/31 04:00:33;;;;;;;5.03;1.83;;;16.30;82.20;;;;;;4956599;29;20506;-79
2022/12/31 04:02:59;;;;;;;4.90;1.30;;;16.30;82.30;;;;;;4954203;29;20562;-79
2022/12/31 04:05:25;;;;;;;3.03;0.90;;;16.30;82.00;;;;;;4945905;29;20032;-79
2022/12/31 04:07:51;;;;;;;5.18;1.20;;;16.30;81.90;;;;;;4956835;29;20090;-79
2022/12/31 04:10:18;;;;;;;8.98;1.60;;;16.30;82.00;;;;;;4956689;29;20035;-79
2022/12/31 04:12:44;;;;;;;5.47;1.90;;;16.30;81.90;;;;;;4945055;29;20028;-79
2022/12/31 04:15:15;;;;;;;6.65;1.65;;;16.30;81.10;;;;;;4954578;29;20127;-79
2022/12/31 04:17:40;;;;;;;5.68;2.22;;;16.40;81.40;;;;;;4952030;29;20023;-79
2022/12/31 04:20:07;;;;;;;4.40;1.52;;;16.40;81.10;;;;;;4954765;29;20042;-79
2022/12/31 04:22:32;;;;;;;5.03;1.48;;;16.40;80.90;;;;;;4950218;29;20463;-79
2022/12/31 04:24:58;;;;;;;7.93;1.55;;;16.40;81.30;;;;;;4945236;29;20058;-79
2022/12/31 04:27:24;;;;;;;4.45;1.90;;;16.30;81.90;;;;;;4954928;29;20035;-79
2022/12/31 04:29:49;;;;;;;3.90;1.25;;;16.30;81.20;;;;;;4953547;29;20028;-79
2022/12/31 04:32:15;;;;;;;7.85;1.15;;;16.30;81.00;;;;;;4955337;29;20055;-79
2022/12/31 04:34:41;;;;;;;5.22;1.70;;;16.30;80.90;;;;;;4949889;29;20031;-79
2022/12/31 04:37:06;;;;;;;5.45;1.70;;;16.30;81.10;;;;;;4957183;29;20103;-79
2022/12/31 04:39:32;;;;;;;9.98;3.45;;;16.30;80.60;;;;;;4959496;29;20019;-79
2022/12/31 04:42:05;;;;;;;11.13;2.15;;;16.30;80.00;;;;;;4951149;29;20083;-79
2022/12/31 04:44:33;;;;;;;3.67;1.83;;;16.30;80.00;;;;;;4958959;29;20089;-79
2022/12/31 04:46:59;;;;;;;7.30;1.65;;;16.40;80.10;;;;;;4953660;29;20031;-79
2022/12/31 04:49:24;;;;;;;8.63;1.88;;;16.30;81.10;;;;;;4959438;29;20023;-79
2022/12/31 04:51:50;;;;;;;4.50;1.08;;;16.30;82.00;;;;;;4959648;29;20090;-79
2022/12/31 04:54:16;;;;;;;6.82;1.35;;;16.20;82.40;;;;;;4956143;29;20110;-79
2022/12/31 04:56:41;;;;;;;2.60;1.13;;;16.20;82.30;;;;;;4959433;29;20119;-79
2022/12/31 04:59:11;;;;;;;18.58;2.75;;;16.10;82.00;;;;;;4959512;29;20206;-79
2022/12/31 05:01:38;;;;;;;12.23;1.97;;;16.20;82.10;;;;;;4958181;29;20527;-79
2022/12/31 05:04:04;;;;;;;8.10;1.90;;;16.20;81.80;;;;;;4959679;29;20119;-79
2022/12/31 05:06:29;;;;;;;7.90;1.60;;;16.20;81.60;;;;;;4959097;29;20016;-79
2022/12/31 05:08:55;;;;;;;10.77;2.15;;;16.20;80.80;;;;;;4959364;29;20030;-79
2022/12/31 05:11:21;;;;;;;10.50;1.55;;;16.20;81.00;;;;;;4957130;29;20041;-79
2022/12/31 05:13:46;;;;;;;8.00;2.00;;;16.20;81.10;;;;;;4959062;29;20055;-79
2022/12/31 05:16:12;;;;;;;9.30;1.98;;;16.20;80.70;;;;;;4959377;29;20035;-79
2022/12/31 05:18:38;;;;;;;6.03;1.75;;;16.20;80.40;;;;;;4958978;29;20094;-79
2022/12/31 05:21:05;;;;;;;11.18;1.77;;;16.30;80.80;;;;;;4954669;29;20031;-79
2022/12/31 05:23:30;;;;;;;11.50;2.40;;;16.30;81.20;;;;;;4950826;29;20055;-79
2022/12/31 05:25:58;;;;;;;10.45;2.47;;;16.30;80.60;;;;;;4955905;29;20140;-79
2022/12/31 05:28:24;;;;;;;7.53;2.00;;;16.20;80.30;;;;;;4952497;29;20114;-79
2022/12/31 05:30:50;;;;;;;6.90;1.77;;;16.30;80.40;;;;;;4958776;29;20070;-79
2022/12/31 05:33:16;;;;;;;11.25;2.42;;;16.30;80.50;;;;;;4958606;29;20038;-79
2022/12/31 05:35:42;;;;;;;6.18;1.90;;;16.30;80.20;;;;;;4951145;29;20111;-79
2022/12/31 05:38:08;;;;;;;6.57;2.65;;;16.20;80.20;;;;;;4958950;29;20061;-79
2022/12/31 05:40:33;;;;;;;7.43;2.35;;;16.20;80.50;;;;;;4956161;29;20134;-79
2022/12/31 05:42:59;;;;;;;13.88;2.03;;;16.20;80.60;;;;;;4957258;28;20051;-79
2022/12/31 05:45:25;;;;;;;13.63;2.47;;;16.20;81.40;;;;;;4952024;29;20023;-79
2022/12/31 05:47:50;;;;;;;8.38;2.20;;;16.10;82.20;;;;;;4956927;29;20030;-79
2022/12/31 05:50:16;;;;;;;5.40;1.83;;;16.10;82.80;;;;;;4954165;29;20116;-79
2022/12/31 05:52:43;;;;;;;10.93;2.65;;;16.00;83.00;;;;;;4954974;29;20027;-79
2022/12/31 05:55:09;;;;;;;5.70;1.90;;;16.00;83.10;;;;;;4958644;28;20034;-79
2022/12/31 05:57:35;;;;;;;9.63;1.90;;;15.90;83.00;;;;;;4958574;29;20019;-79
2022/12/31 06:00:02;;;;;;;11.73;2.15;;;15.90;82.90;;;;;;4956223;29;20425;-79
2022/12/31 06:02:27;;;;;;;8.07;1.70;;;15.90;83.00;;;;;;4955264;29;20118;-79
2022/12/31 06:04:53;;;;;;;5.28;2.45;;;15.90;82.00;;;;;;4954356;29;20055;-79
2022/12/31 06:07:21;;;;;;;11.70;2.63;;;15.90;81.80;;;;;;4958752;29;20055;-79
2022/12/31 06:09:47;;;;;;;5.47;2.10;;;15.90;81.40;;;;;;4957030;29;20058;-79
2022/12/31 06:12:13;;;;;;;14.07;2.53;;;16.00;80.80;;;;;;4954599;29;20035;-79
2022/12/31 06:14:39;;;;;;;8.57;2.60;;;16.00;81.10;;;;;;4957369;29;20035;-79
2022/12/31 06:17:04;;;;;;;14.23;2.03;;;16.00;80.60;;;;;;4946870;29;20049;-79
2022/12/31 06:19:30;;;;;;;7.00;2.47;;;16.10;80.40;;;;;;4957726;29;20062;-79
2022/12/31 06:21:56;;;;;;;9.32;2.28;;;16.10;80.20;;;;;;4955042;29;20858;-79
2022/12/31 06:24:24;;;;;;;8.18;1.92;;;16.10;79.50;;;;;;4946249;29;20031;-79
2022/12/31 06:26:50;;;;;;;5.03;1.80;;;16.10;79.10;;;;;;4958649;29;20074;-79
2022/12/31 06:29:16;;;;;;;9.45;2.58;;;16.20;79.10;;;;;;4956905;29;20023;-79
2022/12/31 06:31:42;;;;;;;11.30;2.25;;;16.20;79.30;;;;;;4950669;29;20403;-79
2022/12/31 06:34:07;;;;;;;7.90;2.05;;;16.20;78.80;;;;;;4956492;29;20031;-79
2022/12/31 06:36:33;;;;;;;6.32;1.05;;;16.20;78.00;;;;;;4958317;29;20070;-79
2022/12/31 06:38:58;;;;;;;7.07;2.05;;;16.20;78.10;;;;;;4952087;29;20031;-79
2022/12/31 06:41:24;;;;;;;11.07;2.35;;;16.30;77.70;;;;;;4958134;29;20030;-78
2022/12/31 06:43:50;;;;;;;8.25;1.73;;;16.30;78.00;;;;;;4958093;29;20026;-79
2022/12/31 06:46:17;;;;;;;8.77;1.92;;;16.30;77.70;;;;;;4958092;29;20034;-78
2022/12/31 06:48:43;;;;;;;6.28;1.65;;;16.30;77.90;;;;;;4951448;29;20447;-79
2022/12/31 06:51:20;;;;;;;6.95;1.88;;;16.20;78.30;;;;;;4948073;29;20020;-79
2022/12/31 06:53:47;;;;;;;6.88;1.98;;;16.20;78.90;;;;;;4954992;28;20096;-78
2022/12/31 06:56:16;;;;;;;8.20;1.90;;;16.20;79.90;;;;;;4957653;29;20046;-78
2022/12/31 06:58:43;;;;;;;7.20;1.87;;;16.00;80.50;;;;;;4956148;29;20534;-78
2022/12/31 07:01:36;;;;;;;11.00;2.20;;;16.00;80.80;;;;;;4957633;29;20023;-78
2022/12/31 07:04:40;;;;;;;6.60;1.45;;;15.90;81.20;;;;;;4946670;29;20051;-78
2022/12/31 07:07:25;;;;;;;9.15;2.20;;;15.80;81.60;;;;;;4888162;29;20044;-78
2022/12/31 07:10:08;;;;;;;9.23;2.10;;;15.80;82.10;;;;;;4952281;29;20114;-78
2022/12/31 07:12:37;;;;;;;7.20;1.83;;;15.80;82.10;;;;;;4950133;29;20027;-78
2022/12/31 07:15:36;;;;;;;6.97;1.80;;;15.70;82.20;;;;;;4946847;29;20130;-79
2022/12/31 07:18:14;;;;;;;11.30;2.37;;;15.70;82.30;;;;;;4957377;28;20023;-79
2022/12/31 07:20:40;;;;;;;11.25;4.05;;;15.70;81.40;;;;;;4949882;29;20779;-78
2022/12/31 07:23:07;;;;;;;9.20;2.58;;;15.70;82.20;;;;;;4941718;29;20482;-79
2022/12/31 07:25:37;;;;;;;4.05;1.85;;;15.60;82.30;;;;;;4954586;29;20022;-79
2022/12/31 07:28:38;;;;;;;8.05;2.25;;;15.60;82.50;;;;;;4948747;29;20080;-79
2022/12/31 07:31:12;;;;;;;8.20;1.83;;;15.50;82.40;;;;;;4939365;29;20530;-79
2022/12/31 07:34:03;;;;;;;9.65;3.08;;;15.50;82.40;;;;;;4951315;29;20042;-79
2022/12/31 07:36:37;;;;;;;3.80;1.23;;;15.50;82.40;;;;;;4945335;29;20054;-79
2022/12/31 07:39:42;;;;;;;8.52;2.40;;;15.60;82.00;;;;;;4953259;29;20038;-79
2022/12/31 07:42:20;;;;;;;11.90;2.60;;;15.60;81.90;;;;;;4955944;29;20043;-79
2022/12/31 07:44:58;;;;;;;8.05;2.13;;;15.60;81.90;;;;;;4957177;29;20025;-79
2022/12/31 07:47:26;;;;;;;3.92;1.58;;;15.60;81.10;;;;;;4957034;29;20515;-79
2022/12/31 07:49:53;;;;;;;5.30;1.95;;;15.70;81.30;;;;;;4945719;29;20027;-78
2022/12/31 07:52:20;;;;;;;7.50;2.20;;;15.70;80.10;;;;;;4957207;29;20028;-79
2022/12/31 07:54:46;;;;;;;10.38;2.22;;;15.70;79.70;;;;;;4948593;29;20032;-79
2022/12/31 07:57:14;;;;;;;8.43;2.22;;;15.80;78.90;;;;;;4955845;29;20839;-78
2022/12/31 08:00:13;;;;;;;5.88;2.17;;;15.80;78.80;;;;;;4956733;29;20019;-79
2022/12/31 08:03:02;;;;;;;20.00;3.50;;;15.80;78.80;;;;;;4915751;29;20036;-79
2022/12/31 08:05:53;;;;;;;7.10;1.52;;;15.80;78.90;;;;;;4956944;28;20098;-79
2022/12/31 08:08:37;;;;;;;5.97;1.33;;;15.80;78.10;;;;;;4953576;29;20044;-79
2022/12/31 08:11:08;;;;;;;6.15;1.70;;;15.90;77.60;;;;;;4952717;29;20060;-79
2022/12/31 08:13:34;;;;;;;4.32;1.90;;;15.90;77.50;;;;;;4948153;29;20071;-78
2022/12/31 08:16:01;;;;;;;4.43;1.80;;;15.90;77.70;;;;;;4960706;29;20031;-79
2022/12/31 08:18:27;;;;;;;9.20;2.03;;;15.90;76.70;;;;;;4947959;29;20023;-79
2022/12/31 08:21:23;;;;;;;8.10;1.25;;;15.90;77.10;;;;;;4959422;29;20031;-79
2022/12/31 08:24:20;;;;;;;6.88;2.08;;;15.90;76.70;;;;;;4958612;28;20495;-79
2022/12/31 08:27:31;;;;;;;6.82;1.80;;;16.00;76.60;;;;;;4960617;29;20023;-79
2022/12/31 08:30:08;;;;;;;16.58;2.45;;;15.90;76.10;;;;;;4927123;28;20067;-79
2022/12/31 08:32:46;;;;;;;11.90;2.55;;;15.90;75.40;;;;;;4959337;29;20055;-79
2022/12/31 08:35:34;;;;;;;4.55;1.10;;;15.90;74.90;;;;;;4960344;29;20023;-79
2022/12/31 08:38:21;;;;;;;9.93;2.03;;;16.00;74.10;;;;;;4932698;28;20083;-78
2022/12/31 08:41:17;;;;;;;6.35;1.85;;;16.00;73.90;;;;;;4955240;29;20094;-79
2022/12/31 08:44:03;;;;;;;5.65;1.92;;;16.00;72.80;;;;;;4960177;29;20031;-79
2022/12/31 08:46:50;;;;;;;8.95;1.42;;;16.10;72.00;;;;;;4948230;29;20030;-79
2022/12/31 08:49:16;;;;;;;7.22;1.73;;;16.10;71.60;;;;;;4959601;29;20077;-79
2022/12/31 08:51:42;;;;;;;9.15;1.83;;;16.10;70.90;;;;;;4960419;29;20110;-79
2022/12/31 08:54:11;;;;;;;6.13;1.77;;;16.10;71.10;;;;;;4959920;29;20051;-79
2022/12/31 08:56:45;;;;;;;6.40;1.88;;;16.10;70.40;;;;;;4952873;29;20031;-79
2022/12/31 08:59:29;;;;;;;9.70;2.35;;;16.10;70.90;;;;;;4954294;29;20026;-79
2022/12/31 09:02:01;;;;;;;7.82;1.88;;;16.10;69.80;;;;;;4948821;29;20031;-79
2022/12/31 09:04:52;;;;;;;5.85;1.73;;;16.20;69.80;;;;;;4958422;29;20023;-79
2022/12/31 09:07:25;;;;;;;9.77;1.80;;;16.20;69.70;;;;;;4929143;28;20039;-79
2022/12/31 09:10:41;;;;;;;8.05;2.05;;;16.20;69.90;;;;;;4954394;29;20023;-79
2022/12/31 09:13:12;;;;;;;7.50;1.92;;;16.20;69.00;;;;;;4891501;29;20037;-79
2022/12/31 09:15:47;;;;;;;8.73;1.65;;;16.30;68.90;;;;;;4900218;29;20041;-79
2022/12/31 09:18:13;;;;;;;7.57;2.03;;;16.30;69.10;;;;;;4925061;29;20044;-79
2022/12/31 09:20:40;;;;;;;5.20;2.20;;;16.30;68.50;;;;;;4959622;29;20019;-79
2022/12/31 09:23:06;;;;;;;8.43;1.98;;;16.40;68.30;;;;;;4946451;28;20538;-79
2022/12/31 09:25:32;;;;;;;7.13;1.30;;;16.40;68.50;;;;;;4956293;29;20027;-80
2022/12/31 09:28:00;;;;;;;6.35;1.42;;;16.50;68.80;;;;;;4958520;29;20094;-80
2022/12/31 09:30:29;;;;;;;7.70;1.98;;;16.50;69.10;;;;;;4954824;29;20027;-79
2022/12/31 09:33:14;;;;;;;7.07;2.17;;;16.60;69.00;;;;;;4958471;29;20062;-79
2022/12/31 09:35:51;;;;;;;10.88;2.63;;;16.60;68.50;;;;;;4946835;29;20570;-79
2022/12/31 09:38:45;;;;;;;10.73;2.08;;;16.60;68.70;;;;;;4959422;29;20031;-79
2022/12/31 09:41:46;;;;;;;6.07;2.17;;;16.70;68.40;;;;;;4954439;29;20059;-79
2022/12/31 09:44:42;;;;;;;6.55;1.88;;;16.70;68.70;;;;;;4954428;29;20032;-79
2022/12/31 09:47:32;;;;;;;8.80;1.50;;;16.70;69.20;;;;;;4957903;29;20030;-79
2022/12/31 09:50:14;;;;;;;;;;;16.70;68.90;;;;;;4948318;29;20051;-79
2022/12/31 09:52:57;;;;;;;10.10;1.65;;;16.70;69.20;;;;;;4950459;29;20001;-79
2022/12/31 09:55:30;;;;;;;15.20;2.30;;;16.70;69.50;;;;;;4958742;29;20027;-79
2022/12/31 09:58:05;;;;;;;10.30;2.75;;;16.80;69.80;;;;;;4958805;29;20032;-79
2022/12/31 10:01:01;;;;;;;4.90;1.85;;;16.70;69.70;;;;;;4952057;29;20063;-79
2022/12/31 10:04:09;;;;;;;12.43;2.65;;;16.70;70.20;;;;;;4946552;29;20510;-79
2022/12/31 10:07:02;;;;;;;11.77;2.08;;;16.70;69.90;;;;;;4925298;28;20100;-79
2022/12/31 10:09:37;;;;;;;9.23;2.10;;;16.80;69.60;;;;;;4956145;29;20053;-79
2022/12/31 10:12:02;;;;;;;7.13;3.20;;;17.00;69.50;;;;;;4957397;29;20058;-79
2022/12/31 10:14:55;;;;;;;11.90;3.05;;;17.00;69.30;;;;;;4958518;29;20031;-80
2022/12/31 10:18:04;;;;;;;14.55;1.65;;;17.00;69.60;;;;;;4943095;29;20051;-79
2022/12/31 10:20:38;;;;;;;7.32;2.08;;;17.10;69.40;;;;;;4951140;29;20160;-79
2022/12/31 10:23:35;;;;;;;7.30;2.00;;;17.10;69.50;;;;;;4941057;29;20106;-79
2022/12/31 10:26:06;;;;;;;12.10;2.80;;;17.00;69.60;;;;;;4945748;29;20462;-79
2022/12/31 10:28:56;;;;;;;8.70;1.73;;;17.00;70.30;;;;;;4952107;28;20035;-79
2022/12/31 10:31:57;;;;;;;7.43;1.98;;;17.00;70.00;;;;;;4946422;29;20055;-79
2022/12/31 10:34:42;;;;;;;7.35;1.70;;;16.90;69.90;;;;;;4946383;29;20035;-79
2022/12/31 10:37:16;;;;;;;11.15;2.72;;;16.90;70.60;;;;;;4956568;29;20503;-79
2022/12/31 10:39:53;;;;;;;7.32;1.35;;;16.80;70.30;;;;;;4955749;29;20020;-79
2022/12/31 10:42:49;;;;;;;13.30;2.42;;;16.80;71.00;;;;;;4956760;29;20027;-79
2022/12/31 10:45:32;;;;;;;12.40;2.53;;;16.80;71.20;;;;;;4956793;29;20031;-79
2022/12/31 10:48:13;;;;;;;10.00;2.42;;;16.80;71.50;;;;;;4955613;29;20502;-79
2022/12/31 10:51:08;;;;;;;11.65;1.75;;;16.70;72.10;;;;;;4956941;29;20043;-79
2022/12/31 10:53:55;;;;;;;7.28;1.80;;;16.70;72.70;;;;;;4922498;29;20082;-79
2022/12/31 10:56:45;;;;;;;5.93;1.77;;;16.80;72.90;;;;;;4957761;29;20019;-79
2022/12/31 10:59:29;;;;;;;5.22;1.85;;;16.80;73.30;;;;;;4956229;29;20733;-79
2022/12/31 11:02:29;;;;;;;9.98;2.00;;;16.80;73.00;;;;;;4948037;29;20059;-79
2022/12/31 11:05:24;;;;;;;9.88;2.08;;;16.90;72.90;;;;;;4957743;29;20466;-79
2022/12/31 11:08:08;;;;;;;8.82;2.65;;;17.00;72.80;;;;;;4955417;29;20402;-79
2022/12/31 11:10:48;;;;;;;16.45;2.78;;;17.00;71.90;;;;;;4957353;29;20038;-79
2022/12/31 11:13:56;;;;;;;10.75;2.05;;;17.10;72.00;;;;;;4957573;29;20034;-79
2022/12/31 11:16:30;;;;;;;10.50;2.47;;;17.10;72.10;;;;;;4948952;29;20035;-79
2022/12/31 11:19:14;;;;;;;5.95;2.28;;;17.20;72.20;;;;;;4957504;29;20020;-79
2022/12/31 11:21:55;;;;;;;6.05;2.00;;;17.20;72.10;;;;;;4957568;29;20075;-79
2022/12/31 11:24:50;;;;;;;9.25;2.28;;;17.20;71.90;;;;;;4945296;29;20030;-79
2022/12/31 11:27:44;;;;;;;12.25;2.65;;;17.30;71.50;;;;;;4948741;29;20607;-79
2022/12/31 11:30:31;;;;;;;9.52;2.30;;;17.30;70.70;;;;;;4936263;28;20050;-79
2022/12/31 11:33:27;;;;;;;7.85;1.77;;;17.40;70.60;;;;;;4945899;29;20043;-79
2022/12/31 11:36:21;;;;;;;13.23;3.13;;;17.40;69.60;;;;;;4954877;29;20110;-79
2022/12/31 11:38:51;;;;;;;12.18;1.83;;;17.50;69.30;;;;;;4957345;29;20031;-80
2022/12/31 11:41:49;;;;;;;8.95;2.40;;;17.60;69.10;;;;;;4957392;29;20032;-80
2022/12/31 11:44:52;;;;;;;9.05;1.80;;;17.60;68.40;;;;;;4957216;29;20043;-79
2022/12/31 11:47:42;;;;;;;5.63;2.22;;;17.70;68.20;;;;;;4951229;29;20038;-79
2022/12/31 11:50:17;;;;;;;14.60;3.83;;;17.80;67.10;;;;;;4957349;29;20027;-79
2022/12/31 11:52:57;;;;;;;6.97;2.20;;;17.80;65.90;;;;;;4948065;29;20031;-79
2022/12/31 11:55:34;;;;;;;10.13;2.00;;;17.70;66.10;;;;;;4957087;29;20031;-79
2022/12/31 11:58:16;;;;;;;10.30;2.33;;;17.80;66.10;;;;;;4951127;29;20029;-80
2022/12/31 12:01:04;;;;;;;8.85;2.40;;;17.80;65.20;;;;;;4957503;29;20098;-79
2022/12/31 12:03:31;;;;;;;10.55;1.73;;;17.90;65.20;;;;;;4944157;29;20027;-79
2022/12/31 12:05:57;;;;;;;12.27;2.30;;;17.90;64.30;;;;;;4955721;29;20019;-79
2022/12/31 12:08:25;;;;;;;8.38;1.45;;;17.80;64.20;;;;;;4944023;29;20027;-79
2022/12/31 12:11:05;;;;;;;11.15;2.15;;;17.90;63.70;;;;;;4957003;29;20026;-79
2022/12/31 12:13:31;;;;;;;10.00;2.45;;;17.90;63.80;;;;;;4955611;29;20122;-79
2022/12/31 12:16:04;;;;;;;8.68;2.00;;;17.80;62.30;;;;;;4947141;29;20063;-79
2022/12/31 12:18:35;;;;;;;12.82;2.30;;;17.80;62.30;;;;;;4956154;29;20051;-79
2022/12/31 12:21:28;;;;;;;14.07;2.67;;;17.80;62.60;;;;;;4957033;29;20020;-79
2022/12/31 12:24:00;;;;;;;6.97;1.50;;;17.80;62.30;;;;;;4941170;29;20407;-80
2022/12/31 12:26:26;;;;;;;10.00;1.88;;;17.80;62.20;;;;;;4956821;29;20035;-79
2022/12/31 12:28:52;;;;;;;5.65;1.83;;;17.70;61.60;;;;;;4950689;29;20024;-80
2022/12/31 12:31:21;;;;;;;10.75;2.05;;;17.70;59.80;;;;;;4955569;29;20047;-80
2022/12/31 12:33:49;;;;;;;15.27;2.60;;;17.70;60.50;;;;;;4952269;29;20423;-79
2022/12/31 12:36:17;;;;;;;7.38;2.10;;;17.70;60.60;;;;;;4955546;29;20027;-79
2022/12/31 12:38:43;;;;;;;10.45;2.40;;;17.70;60.50;;;;;;4956403;29;20033;-80
2022/12/31 12:41:19;;;;;;;6.35;1.73;;;17.70;60.00;;;;;;4950182;29;20470;-79
2022/12/31 12:43:44;;;;;;;10.50;2.38;;;17.70;60.40;;;;;;4956290;29;20043;-79
2022/12/31 12:46:27;;;;;;;6.90;2.17;;;17.70;59.90;;;;;;4944722;28;20027;-80
2022/12/31 12:48:57;;;;;;;6.22;1.88;;;17.60;59.30;;;;;;4950403;29;20028;-79
2022/12/31 12:51:38;;;;;;;;;;;17.70;58.20;;;;;;4956825;28;20062;-79
2022/12/31 12:54:06;;;;;;;7.43;1.90;;;17.70;59.20;;;;;;4958891;29;19914;-79
2022/12/31 12:56:48;;;;;;;10.48;2.40;;;17.70;58.30;;;;;;4946554;29;20031;-79
2022/12/31 12:59:47;;;;;;;7.90;2.22;;;17.70;57.90;;;;;;4954812;29;20028;-79
2022/12/31 13:02:16;;;;;;;7.43;1.40;;;17.70;57.30;;;;;;4958699;29;20027;-79
2022/12/31 13:05:08;;;;;;;4.38;1.83;;;17.70;56.70;;;;;;4959798;29;20046;-79
2022/12/31 13:07:56;;;;;;;6.07;1.75;;;17.70;57.50;;;;;;4951776;29;20361;-79
2022/12/31 13:10:38;;;;;;;6.28;1.95;;;17.70;56.20;;;;;;4958791;29;20035;-79
2022/12/31 13:13:30;;;;;;;7.88;1.67;;;17.70;56.60;;;;;;4959484;29;20032;-79
2022/12/31 13:16:10;;;;;;;9.38;2.05;;;17.70;56.80;;;;;;4951380;29;20079;-79
2022/12/31 13:18:53;;;;;;;3.38;1.40;;;17.80;55.60;;;;;;4955992;29;20030;-79
2022/12/31 13:21:21;;;;;;;6.38;1.73;;;17.80;54.00;;;;;;4954050;29;20403;-79
2022/12/31 13:24:05;;;;;;;5.10;1.50;;;17.80;54.70;;;;;;4945696;29;20484;-80
2022/12/31 13:26:39;;;;;;;11.93;2.00;;;17.80;53.90;;;;;;4957510;29;20400;-80
2022/12/31 13:29:17;;;;;;;7.43;1.60;;;17.80;54.00;;;;;;4957686;29;20026;-79
2022/12/31 13:31:43;;;;;;;6.13;1.45;;;17.80;53.60;;;;;;4959406;29;20051;-79